Time;durP1;ratioP1;P1;durP2;ratioP2;P2;SDS_P1;SDS_P2;PMS_P1;PMS_P2;Temp;Humidity;BMP_temperature;BMP_pressure;BME280_temperature;BME280_humidity;BME280_pressure;Samples;Min_cycle;Max_cycle;Signal;HPM_P1;HPM_P2
2022/05/13 00:00:52;;;;;;;;;0.00;0.00;;;;;18.25;38.46;101728.56;5094714;27;47639;-75
2022/05/13 00:03:20;;;;;;;;;0.33;0.33;;;;;18.21;38.51;101730.72;5109049;27;45430;-69
2022/05/13 00:05:52;;;;;;;;;2.00;0.00;;;;;18.04;38.59;101712.94;5110762;27;45428;-69
2022/05/13 00:08:18;;;;;;;;;0.00;0.00;;;;;18.15;39.00;101734.09;5086842;27;45711;-68
2022/05/13 00:10:44;;;;;;;;;0.33;0.33;;;;;18.02;38.91;101704.19;5107117;27;46369;-69
2022/05/13 00:13:09;;;;;;;;;0.33;0.33;;;;;18.14;38.69;101732.41;5098359;27;45371;-69
2022/05/13 00:15:35;;;;;;;;;0.00;0.00;;;;;18.09;39.01;101723.19;5096517;27;45513;-68
2022/05/13 00:18:01;;;;;;;;;1.00;1.00;;;;;18.12;37.94;101734.44;5080425;27;45367;-69
2022/05/13 00:20:27;;;;;;;;;1.00;1.00;;;;;18.12;38.49;101725.53;5107751;27;46101;-68
2022/05/13 00:22:55;;;;;;;;;1.33;0.00;;;;;18.06;38.15;101726.22;5119582;27;45333;-69
2022/05/13 00:25:24;;;;;;;;;1.00;1.00;;;;;18.09;38.55;101733.94;5117160;27;45444;-67
2022/05/13 00:27:50;;;;;;;;;4.00;3.00;;;;;18.07;38.29;101736.81;5099903;27;45424;-68
2022/05/13 00:30:16;;;;;;;;;3.00;2.00;;;;;18.00;38.04;101724.19;5097860;27;47100;-68
2022/05/13 00:32:43;;;;;;;;;1.67;1.00;;;;;18.00;38.36;101718.78;5080861;27;46026;-68
2022/05/13 00:35:09;;;;;;;;;2.00;2.00;;;;;17.77;38.09;101697.94;5080037;27;45216;-69
2022/05/13 00:37:35;;;;;;;;;0.00;0.00;;;;;17.84;38.12;101704.38;5112910;27;45311;-69
2022/05/13 00:40:02;;;;;;;;;0.00;0.00;;;;;17.93;38.23;101719.47;5102208;27;46696;-69
2022/05/13 00:42:28;;;;;;;;;0.00;0.00;;;;;17.91;37.80;101718.81;5114061;27;45527;-69
2022/05/13 00:44:53;;;;;;;;;4.00;1.67;;;;;17.32;37.82;101628.50;5115867;27;45466;-69
2022/05/13 00:47:19;;;;;;;;;1.00;1.00;;;;;17.78;37.88;101705.00;5098525;27;45291;-69
2022/05/13 00:49:44;;;;;;;;;1.00;1.00;;;;;17.78;38.03;101709.56;5097805;27;46118;-68
2022/05/13 00:52:11;;;;;;;;;0.00;0.00;;;;;17.76;37.88;101725.84;5100091;27;45359;-67
2022/05/13 00:54:42;;;;;;;;;0.67;0.67;;;;;17.58;37.97;101709.00;5114713;27;46170;-68
2022/05/13 00:57:11;;;;;;;;;0.00;0.00;;;;;17.48;37.91;101698.41;5117051;27;45659;-68
2022/05/13 00:59:39;;;;;;;;;0.00;0.00;;;;;17.50;38.02;101711.69;5098065;27;47095;-68
2022/05/13 01:02:04;;;;;;;;;0.00;0.00;;;;;17.56;37.94;101728.00;5113933;27;45514;-68
2022/05/13 01:04:31;;;;;;;;;2.33;0.00;;;;;17.54;37.67;101727.31;5116289;27;45568;-68
2022/05/13 01:06:59;;;;;;;;;0.00;0.00;;;;;17.53;37.86;101716.72;5109771;27;46099;-70
2022/05/13 01:09:30;;;;;;;;;1.67;1.00;;;;;17.55;37.59;101723.63;5107844;27;45469;-68
2022/05/13 01:11:58;;;;;;;;;0.00;0.00;;;;;17.57;37.34;101737.72;5099017;27;46653;-68
2022/05/13 01:14:28;;;;;;;;;0.00;0.00;;;;;17.49;37.60;101720.75;5115892;27;45328;-69
2022/05/13 01:19:38;;;;;;;;;0.00;0.00;;;;;16.87;38.00;101645.03;5100140;27;45569;-76
2022/05/13 01:22:15;;;;;;;;;0.00;0.00;;;;;17.37;38.38;101728.28;5104548;27;45530;-68
2022/05/13 01:24:41;;;;;;;;;0.00;0.00;;;;;17.20;38.61;101716.66;5097651;27;45291;-69
2022/05/13 01:27:07;;;;;;;;;2.00;0.00;;;;;17.13;38.88;101712.94;5105030;27;45509;-72
2022/05/13 01:29:32;;;;;;;;;1.00;1.00;;;;;17.21;39.48;101731.75;5112286;27;45761;-69
2022/05/13 01:31:58;;;;;;;;;2.00;1.00;;;;;17.23;39.57;101737.84;5079087;27;46486;-68
2022/05/13 01:34:24;;;;;;;;;1.00;1.00;;;;;17.11;39.60;101708.72;5094184;27;45458;-68
2022/05/13 01:36:49;;;;;;;;;1.00;0.00;;;;;17.27;39.72;101728.44;5108052;27;45467;-68
2022/05/13 01:39:14;;;;;;;;;1.33;1.33;;;;;17.28;40.28;101740.88;5113391;27;45938;-68
2022/05/13 01:41:40;;;;;;;;;0.67;0.67;;;;;17.28;40.28;101740.03;5115470;27;45327;-69
2022/05/13 01:44:05;;;;;;;;;3.00;0.67;;;;;17.20;40.48;101732.75;5116365;27;45435;-67
2022/05/13 01:46:32;;;;;;;;;1.67;0.33;;;;;17.11;40.85;101720.31;5112944;27;45732;-69
2022/05/13 01:48:57;;;;;;;;;0.67;0.67;;;;;17.15;41.01;101727.03;5103805;27;45184;-68
2022/05/13 01:51:23;;;;;;;;;1.00;1.00;;;;;17.19;41.20;101716.81;5113827;27;45211;-68
2022/05/13 01:53:49;;;;;;;;;0.33;0.33;;;;;17.23;41.05;101732.47;5103007;27;45522;-68
2022/05/13 01:56:14;;;;;;;;;1.67;1.00;;;;;17.24;41.18;101727.94;5102460;27;45486;-69
2022/05/13 01:58:40;;;;;;;;;1.00;1.00;;;;;17.21;41.34;101723.69;5084324;27;47875;-68
2022/05/13 02:01:08;;;;;;;;;0.00;0.00;;;;;17.14;41.20;101713.78;5102190;27;46147;-68
2022/05/13 02:03:46;;;;;;;;;3.67;1.33;;;;;16.68;41.39;101636.22;5116289;27;45398;-70
2022/05/13 02:06:14;;;;;;;;;1.00;0.00;;;;;17.27;41.27;101728.44;5118076;27;45325;-68
2022/05/13 02:08:40;;;;;;;;;3.33;1.67;;;;;17.24;41.49;101726.09;5102765;27;46517;-69
2022/05/13 02:11:06;;;;;;;;;0.00;0.00;;;;;17.24;41.71;101734.16;5106580;27;45243;-68
2022/05/13 02:13:33;;;;;;;;;2.00;1.00;;;;;17.24;42.00;101725.25;5115491;27;45392;-68
2022/05/13 02:15:58;;;;;;;;;1.33;1.00;;;;;16.99;42.23;101687.53;5099273;27;45518;-68
2022/05/13 02:18:24;;;;;;;;;1.00;1.00;;;;;17.22;42.31;101738.84;5114644;27;46472;-68
2022/05/13 02:20:49;;;;;;;;;1.00;1.00;;;;;16.54;42.10;101615.34;5101328;27;45415;-70
2022/05/13 02:23:18;;;;;;;;;1.00;1.00;;;;;17.20;42.69;101732.75;5094600;27;45564;-68
2022/05/13 02:25:44;;;;;;;;;1.67;1.00;;;;;17.23;42.72;101737.84;5098590;27;45433;-69
2022/05/13 02:28:09;;;;;;;;;2.00;0.00;;;;;17.23;42.55;101737.84;5105484;27;46762;-67
2022/05/13 02:30:35;;;;;;;;;1.00;1.00;;;;;17.19;43.11;101732.94;5117503;27;45255;-68
2022/05/13 02:33:01;;;;;;;;;1.00;1.00;;;;;17.18;42.80;101736.63;5115453;27;45511;-68
2022/05/13 02:35:27;;;;;;;;;1.00;1.00;;;;;17.11;43.29;101719.47;5106166;27;45320;-67
2022/05/13 02:37:53;;;;;;;;;0.00;0.00;;;;;17.02;43.09;101707.88;5110760;27;46731;-68
2022/05/13 02:40:20;;;;;;;;;2.00;2.00;;;;;17.17;43.18;101738.47;5115080;27;45336;-69
2022/05/13 02:42:45;;;;;;;;;1.00;1.00;;;;;17.07;42.86;101713.59;5103377;27;45684;-68
2022/05/13 02:45:11;;;;;;;;;1.67;0.67;;;;;17.03;42.94;101709.56;5098403;27;45499;-68
2022/05/13 02:47:38;;;;;;;;;1.00;1.00;;;;;17.17;43.27;101738.47;5111171;27;46473;-69
2022/05/13 02:50:17;;;;;;;;;1.67;1.00;;;;;17.02;43.42;101715.94;5117090;27;45618;-68
2022/05/13 02:52:43;;;;;;;;;2.33;1.00;;;;;17.19;43.76;101741.00;5117515;27;45566;-68
2022/05/13 02:55:09;;;;;;;;;2.33;1.00;;;;;16.84;44.00;101682.97;5109682;27;45375;-68
2022/05/13 02:57:34;;;;;;;;;0.67;0.67;;;;;17.18;43.74;101740.16;5111045;27;46723;-67
2022/05/13 02:59:59;;;;;;;;;2.00;0.33;;;;;17.15;44.15;101735.09;5105146;27;45605;-68
2022/05/13 03:02:26;;;;;;;;;1.00;1.00;;;;;16.97;44.33;101712.88;5088477;27;45856;-69
2022/05/13 03:04:51;;;;;;;;;3.00;2.00;;;;;16.82;44.42;101690.31;5119291;27;45552;-69
2022/05/13 03:07:17;;;;;;;;;2.00;2.00;;;;;17.06;44.83;101738.78;5116542;27;46382;-68
2022/05/13 03:09:42;;;;;;;;;1.67;0.33;;;;;17.05;44.25;101730.88;5119497;27;45520;-68
2022/05/13 03:12:09;;;;;;;;;1.00;1.00;;;;;17.00;44.56;101736.72;5111635;27;45426;-67
2022/05/13 03:14:34;;;;;;;;;2.67;0.33;;;;;16.93;44.34;101731.16;5100391;27;45955;-69
2022/05/13 03:16:59;;;;;;;;;1.00;1.00;;;;;16.76;44.39;101690.97;5114001;27;46465;-68
2022/05/13 03:19:25;;;;;;;;;1.67;1.00;;;;;16.99;44.39;101726.97;5116190;27;45588;-68
2022/05/13 03:21:50;;;;;;;;;1.67;1.00;;;;;16.99;44.58;101735.03;5118811;27;45467;-69
2022/05/13 03:24:15;;;;;;;;;3.33;2.00;;;;;16.99;44.60;101729.66;5117382;27;45379;-69
2022/05/13 03:26:41;;;;;;;;;1.00;1.00;;;;;16.82;44.78;101701.06;5118596;27;46455;-68
2022/05/13 03:29:06;;;;;;;;;3.33;2.00;;;;;16.98;44.20;101733.38;5118622;27;45365;-68
2022/05/13 03:31:34;;;;;;;;;3.67;2.00;;;;;16.94;44.85;101732.84;5118360;27;45577;-67
2022/05/13 03:33:59;;;;;;;;;2.00;2.00;;;;;16.96;44.78;101732.69;5109375;27;45447;-68
2022/05/13 03:36:25;;;;;;;;;1.67;1.67;;;;;16.89;44.76;101724.44;5097307;27;46959;-69
2022/05/13 03:38:50;;;;;;;;;3.67;2.33;;;;;16.92;44.67;101728.66;5110974;27;45326;-69
2022/05/13 03:41:16;;;;;;;;;1.33;1.00;;;;;16.77;44.34;101703.38;5119746;27;45824;-67
2022/05/13 03:43:41;;;;;;;;;2.00;2.00;;;;;16.94;44.48;101729.31;5106725;27;45524;-70
2022/05/13 03:46:07;;;;;;;;;1.00;1.00;;;;;16.33;44.43;101625.63;5100344;27;47325;-69
2022/05/13 03:48:32;;;;;;;;;1.00;1.00;;;;;16.97;44.70;101737.06;5113798;27;45894;-68
2022/05/13 03:50:58;;;;;;;;;4.00;4.00;;;;;16.84;44.77;101709.81;5119504;27;45358;-68
2022/05/13 03:53:23;;;;;;;;;1.00;1.00;;;;;17.00;44.83;101737.56;5100592;27;45228;-68
2022/05/13 03:55:49;;;;;;;;;3.00;2.00;;;;;16.94;44.98;101727.47;5116894;27;47026;-68
2022/05/13 03:58:14;;;;;;;;;3.00;2.00;;;;;16.99;45.13;101749.31;5105045;27;45342;-69
2022/05/13 04:00:40;;;;;;;;;2.67;1.00;;;;;16.98;45.07;101744.94;5094183;27;45293;-69
2022/05/13 04:03:05;;;;;;;;;12.33;12.33;;;;;16.96;45.86;101740.75;5103603;27;45630;-69
2022/05/13 04:10:58;;;;;;;;;2.67;2.67;;;;;16.89;46.77;101745.09;5115773;27;45225;-69
2022/05/13 04:16:18;;;;;;;;;2.00;1.33;;;;;16.93;46.35;101751.81;5019722;27;45977;-68
2022/05/13 04:18:47;;;;;;;;;5.67;5.67;;;;;16.89;46.71;101751.31;5111960;27;45520;-68
2022/05/13 04:21:33;;;;;;;;;3.00;3.00;;;;;16.23;46.55;101635.66;5100347;27;45348;-69
2022/05/13 04:24:03;;;;;;;;;1.00;1.00;;;;;16.84;46.91;101744.72;5094704;27;45515;-68
2022/05/13 04:26:29;;;;;;;;;1.00;1.00;;;;;16.83;46.82;101746.59;5109680;27;45802;-68
2022/05/13 04:28:56;;;;;;;;;2.33;1.00;;;;;16.82;47.31;101755.63;5088909;27;45541;-67
2022/05/13 04:31:31;;;;;;;;;3.33;2.67;;;;;16.81;47.47;101755.78;5085653;27;45400;-69
2022/05/13 04:33:57;;;;;;;;;1.00;1.00;;;;;16.82;47.36;101760.13;5111929;27;45556;-68
2022/05/13 04:36:23;;;;;;;;;1.33;1.33;;;;;16.80;47.15;101759.47;5113303;27;46551;-68
2022/05/13 04:38:49;;;;;;;;;2.00;2.00;;;;;16.75;47.17;101748.38;5088265;27;45408;-68
2022/05/13 04:44:00;;;;;;;;;2.00;2.00;;;;;16.81;47.72;101758.47;5102635;27;45649;-69
2022/05/13 04:46:25;;;;;;;;;7.33;7.33;;;;;16.71;48.01;101748.69;5078901;27;48340;-68
2022/05/13 04:48:52;;;;;;;;;3.00;3.00;;;;;16.58;47.82;101713.34;5088463;27;45633;-68
2022/05/13 04:51:17;;;;;;;;;4.33;4.00;;;;;16.32;47.78;101683.00;5099485;27;45540;-69
2022/05/13 04:53:44;;;;;;;;;3.67;3.00;;;;;16.66;48.19;101734.91;5096904;27;45441;-70
2022/05/13 04:56:11;;;;;;;;;2.33;2.00;;;;;16.86;48.25;101769.59;5103027;27;47063;-67
2022/05/13 04:58:38;;;;;;;;;4.33;2.00;;;;;16.73;48.21;101745.84;5090387;27;45468;-68
2022/05/13 05:01:06;;;;;;;;;6.67;4.00;;;;;16.90;48.32;101763.72;5090173;27;45497;-69
2022/05/13 05:03:32;;;;;;;;;3.33;3.00;;;;;16.89;48.23;101761.19;5100127;27;45500;-68
2022/05/13 05:05:59;;;;;;;;;4.67;3.00;;;;;16.97;48.17;101774.66;5097209;27;47849;-69
2022/05/13 05:08:26;;;;;;;;;3.33;3.33;;;;;16.98;48.32;101777.19;5108938;27;45517;-68
2022/05/13 05:10:51;;;;;;;;;2.00;2.00;;;;;16.98;48.28;101781.72;5108548;27;45601;-75
2022/05/13 05:13:20;;;;;;;;;5.00;2.33;;;;;16.85;48.60;101773.28;5098832;27;45911;-69
2022/05/13 05:15:46;;;;;;;;;3.00;3.00;;;;;17.00;48.36;101785.09;5097328;27;46055;-67
2022/05/13 05:18:12;;;;;;;;;2.00;2.00;;;;;17.03;48.19;101785.63;5083839;27;45557;-68
2022/05/13 05:20:38;;;;;;;;;5.67;2.33;;;;;16.93;48.45;101776.00;5090659;27;45645;-68
2022/05/13 05:23:05;;;;;;;;;5.33;4.33;;;;;17.05;48.56;101798.91;5110486;27;45338;-73
2022/05/13 05:25:31;;;;;;;;;1.33;1.00;;;;;17.07;48.50;101796.88;5113559;27;46214;-68
2022/05/13 05:27:56;;;;;;;;;4.33;4.33;;;;;16.92;48.77;101771.63;5106730;27;45348;-68
2022/05/13 05:30:23;;;;;;;;;3.00;3.00;;;;;17.17;48.12;101796.75;5101767;27;45495;-67
2022/05/13 05:32:49;;;;;;;;;4.67;4.33;;;;;17.03;48.51;101785.63;5116528;27;45443;-69
2022/05/13 05:35:19;;;;;;;;;0.00;0.00;;;;;17.14;48.55;101810.50;5093108;27;46296;-68
2022/05/13 05:37:44;;;;;;;;;1.67;1.67;;;;;17.17;48.53;101805.66;5111781;27;45295;-68
2022/05/13 05:40:10;;;;;;;;;2.33;2.00;;;;;17.17;48.26;101808.34;5116676;27;45211;-70
2022/05/13 05:42:38;;;;;;;;;3.00;3.00;;;;;17.20;48.46;101813.38;5113631;27;45493;-70
2022/05/13 05:45:05;;;;;;;;;7.00;4.00;;;;;17.27;48.20;101814.44;5099729;27;45571;-69
2022/05/13 05:47:30;;;;;;;;;7.00;6.67;;;;;17.30;47.90;101811.44;5101047;27;46289;-68
2022/05/13 05:49:57;;;;;;;;;4.00;4.00;;;;;17.31;47.84;101825.72;5100152;27;45460;-74
2022/05/13 05:52:23;;;;;;;;;7.00;6.00;;;;;17.24;47.81;101809.41;5109018;27;45159;-69
2022/05/13 05:57:32;;;;;;;;;3.67;3.67;;;;;17.23;47.49;101807.72;5099933;27;46381;-68
2022/05/13 05:59:58;;;;;;;;;2.67;2.00;;;;;17.41;47.32;101830.94;5113772;27;45489;-67
2022/05/13 06:02:23;;;;;;;;;2.00;2.00;;;;;17.34;47.01;101811.94;5097553;27;45468;-68
2022/05/13 06:04:49;;;;;;;;;4.67;3.00;;;;;17.50;47.06;101816.53;5103285;27;45643;-68
2022/05/13 06:07:16;;;;;;;;;3.00;3.00;;;;;18.06;46.41;101820.41;5102427;27;45249;-67
2022/05/13 06:09:43;;;;;;;;;4.00;4.00;;;;;18.97;44.38;101847.13;5119337;27;45472;-70
2022/05/13 06:12:10;;;;;;;;;9.33;7.00;;;;;19.74;42.92;101824.75;5101490;27;45632;-69
2022/05/13 06:14:36;;;;;;;;;5.00;5.00;;;;;20.52;41.05;101828.25;5120406;27;45695;-69
2022/05/13 06:17:02;;;;;;;;;2.00;2.00;;;;;21.14;39.39;101800.91;5119852;27;45441;-69
2022/05/13 06:19:28;;;;;;;;;2.00;2.00;;;;;21.95;37.95;101823.31;5117245;27;45222;-70
2022/05/13 06:21:53;;;;;;;;;5.67;3.33;;;;;22.76;36.85;101841.78;5085514;27;45696;-72
2022/05/13 06:24:19;;;;;;;;;2.33;2.00;;;;;23.41;34.99;101838.84;5110935;27;45314;-68
2022/05/13 06:26:48;;;;;;;;;5.00;4.00;;;;;23.94;34.67;101819.03;5119490;27;45453;-69
2022/05/13 06:29:14;;;;;;;;;5.00;5.00;;;;;24.75;33.47;101847.94;5120429;27;45404;-68
2022/05/13 06:31:39;;;;;;;;;4.00;2.00;;;;;25.14;32.37;101820.69;5113521;27;45267;-69
2022/05/13 06:34:05;;;;;;;;;4.00;3.00;;;;;25.33;30.89;101761.78;5111949;27;45416;-68
2022/05/13 06:36:31;;;;;;;;;3.00;2.00;;;;;26.41;30.51;101853.56;5098389;27;45951;-68
2022/05/13 06:38:57;;;;;;;;;6.00;2.67;;;;;26.72;29.53;101822.69;5104705;27;45610;-70
2022/05/13 06:41:24;;;;;;;;;2.00;2.00;;;;;27.20;28.51;101841.91;5100470;27;45347;-68
2022/05/13 06:43:49;;;;;;;;;2.00;2.00;;;;;27.20;27.82;101776.38;5080743;27;47640;-75
2022/05/13 06:46:15;;;;;;;;;3.00;3.00;;;;;27.75;27.60;101825.50;5083840;27;45565;-69
2022/05/13 06:48:40;;;;;;;;;2.33;2.33;;;;;28.19;27.31;101846.91;5099703;27;45196;-69
2022/05/13 06:51:06;;;;;;;;;3.00;3.00;;;;;28.59;27.06;101851.75;5107565;27;45532;-70
2022/05/13 06:56:06;;;;;;;;;2.00;2.00;;;;;29.25;25.57;101838.78;4523020;22;46090;-70
2022/05/13 06:58:32;;;;;;;;;3.00;2.33;;;;;29.61;24.39;101837.59;5099398;27;45342;-70
2022/05/13 07:00:57;;;;;;;;;2.00;2.00;;;;;29.31;24.06;101770.16;5099081;27;45535;-71
2022/05/13 07:03:23;;;;;;;;;3.00;2.00;;;;;30.15;23.86;101860.03;5097883;27;45688;-70
2022/05/13 07:05:48;;;;;;;;;3.00;1.00;;;;;30.17;23.49;101836.75;5098507;27;45329;-71
2022/05/13 07:08:14;;;;;;;;;3.67;2.67;;;;;30.02;23.20;101778.03;5099311;27;45461;-71
2022/05/13 07:10:41;;;;;;;;;3.00;3.00;;;;;30.77;22.17;101865.47;5081192;27;45303;-70
2022/05/13 07:13:08;;;;;;;;;3.00;1.67;;;;;30.91;21.66;101863.22;5099410;27;45487;-70
2022/05/13 07:15:34;;;;;;;;;2.00;1.00;;;;;31.09;21.75;101862.94;5080824;27;45322;-72
2022/05/13 07:18:00;;;;;;;;;1.33;1.00;;;;;30.97;21.31;101797.13;5078819;27;45322;-70
2022/05/13 07:20:27;;;;;;;;;2.00;2.00;;;;;31.55;20.98;101831.38;5099187;27;45386;-71
2022/05/13 07:22:53;;;;;;;;;2.33;1.00;;;;;31.72;20.73;101777.16;5080615;27;48743;-70
2022/05/13 07:25:20;;;;;;;;;2.33;2.33;;;;;32.61;19.78;101858.28;5080378;27;45475;-68
2022/05/13 07:27:45;;;;;;;;;6.33;6.33;;;;;32.90;19.50;101843.09;5099001;27;45233;-71
2022/05/13 07:30:14;;;;;;;;;1.33;1.00;;;;;33.28;19.17;101854.84;5099471;27;45535;-70
2022/05/13 07:32:40;;;;;;;;;2.00;2.00;;;;;33.67;18.38;101841.50;5079843;27;47677;-71
2022/05/13 07:35:06;;;;;;;;;6.67;5.67;;;;;34.02;18.05;101857.31;5097357;27;45319;-72
2022/05/13 07:37:31;;;;;;;;;3.00;1.33;;;;;34.12;18.20;101838.00;5097393;27;45536;-70
2022/05/13 07:42:40;;;;;;;;;7.33;6.33;;;;;33.42;17.60;101651.19;5087727;27;45915;-67
2022/05/13 07:45:06;;;;;;;;;1.67;1.67;;;;;34.64;17.53;101833.28;5098391;27;45263;-66
2022/05/13 07:47:32;;;;;;;;;0.00;0.00;;;;;34.34;17.68;101817.56;5099001;27;45216;-66
2022/05/13 07:49:57;;;;;;;;;1.00;1.00;;;;;33.73;17.46;101834.91;5063440;27;45308;-66
2022/05/13 07:52:24;;;;;;;;;3.00;3.00;;;;;33.46;17.81;101837.88;5094895;27;45706;-68
2022/05/13 07:54:50;;;;;;;;;1.33;1.33;;;;;33.30;17.63;101871.94;5095583;27;45437;-70
2022/05/13 07:57:15;;;;;;;;;7.67;7.00;;;;;33.02;18.26;101864.06;5098804;27;45312;-64
2022/05/13 08:02:25;;;;;;;;;0.00;0.00;;;;;32.53;17.68;101859.59;5084682;27;45260;-70
2022/05/13 08:15:17;;;;;;;;;4.00;2.67;;;;;31.07;18.54;101648.94;6017881;22;46529;-75
2022/05/13 08:17:43;;;;;;;;;3.00;2.00;;;;;32.22;18.48;101828.22;5068212;28;45329;-73
2022/05/13 08:20:10;;;;;;;;;2.00;2.00;;;;;32.12;18.44;101792.38;5078910;28;45318;-74
2022/05/13 08:22:36;;;;;;;;;3.00;2.33;;;;;32.34;17.52;101817.91;5076547;27;46563;-74
2022/05/13 08:25:01;;;;;;;;;1.00;1.00;;;;;32.68;18.08;101867.16;5089568;27;45447;-74
2022/05/13 08:27:26;;;;;;;;;0.00;0.00;;;;;32.40;17.88;101809.66;5068252;27;45537;-72
2022/05/13 08:29:52;;;;;;;;;2.00;2.00;;;;;32.54;18.14;101854.94;5064235;28;45553;-74
2022/05/13 08:32:17;;;;;;;;;2.00;1.67;;;;;32.60;18.00;101860.19;5079034;28;46366;-73
2022/05/13 08:34:43;;;;;;;;;3.00;3.00;;;;;32.51;18.11;101845.28;5078632;28;45465;-73
2022/05/13 08:37:08;;;;;;;;;4.00;4.00;;;;;32.57;18.06;101857.16;5060719;28;45604;-73
2022/05/13 08:39:34;;;;;;;;;2.33;2.00;;;;;32.53;18.27;101856.03;5063803;27;45490;-75
2022/05/13 08:42:11;;;;;;;;;3.00;1.00;;;;;32.53;18.45;101864.28;5056155;28;45855;-75
2022/05/13 08:44:40;;;;;;;;;1.00;1.00;;;;;32.52;18.36;101868.97;5060320;28;45538;-77
2022/05/13 08:47:08;;;;;;;;;2.67;1.67;;;;;32.41;18.36;101856.19;5061806;28;45536;-74
2022/05/13 08:49:47;;;;;;;;;2.00;2.00;;;;;31.44;18.66;101737.00;5077859;27;45343;-73
2022/05/13 08:55:36;;;;;;;;;0.00;0.00;;;;;31.34;19.06;101807.50;5077220;27;45532;-76
2022/05/13 08:58:06;;;;;;;;;3.00;1.33;;;;;31.67;19.01;101869.75;5079241;28;45439;-72
2022/05/13 09:00:44;;;;;;;;;2.00;2.00;;;;;31.70;19.65;101877.47;5073564;27;45837;-73
2022/05/13 09:03:25;;;;;;;;;2.67;1.67;;;;;31.70;18.63;101872.81;5060733;28;45891;-73
2022/05/13 09:06:21;;;;;;;;;1.00;1.00;;;;;31.01;18.81;101759.81;5060031;28;45566;-76
2022/05/13 09:08:47;;;;;;;;;1.00;1.00;;;;;31.58;19.09;101857.53;5060245;28;45407;-76
2022/05/13 09:11:18;;;;;;;;;1.00;1.00;;;;;31.56;18.87;101866.03;5078581;28;45577;-75
2022/05/13 09:14:00;;;;;;;;;12.67;12.33;;;;;31.14;18.52;101828.09;5060212;28;46720;-75
2022/05/13 09:16:48;;;;;;;;;1.00;1.00;;;;;31.46;19.31;101860.41;5077942;28;45477;-75
2022/05/13 09:19:29;;;;;;;;;3.00;1.00;;;;;31.80;18.68;101861.09;5078914;28;45428;-75
2022/05/13 09:21:55;;;;;;;;;3.33;1.00;;;;;31.46;18.64;101805.44;5078746;28;45386;-72
2022/05/13 09:24:20;;;;;;;;;0.00;0.00;;;;;31.85;17.32;101854.84;5061455;28;48126;-74
2022/05/13 09:26:46;;;;;;;;;0.00;0.00;;;;;32.12;17.14;101852.91;5079708;28;45303;-73
2022/05/13 09:29:14;;;;;;;;;0.67;0.33;;;;;31.91;17.58;101785.03;5078453;28;45309;-73
2022/05/13 09:31:45;;;;;;;;;1.33;1.33;;;;;32.54;17.56;101876.94;5078155;28;45189;-75
2022/05/13 09:34:27;;;;;;;;;1.00;0.00;;;;;32.63;16.85;101803.75;5077989;28;46830;-76
2022/05/13 09:37:12;;;;;;;;;0.00;0.00;;;;;33.23;16.37;101858.41;5077922;28;45349;-73
2022/05/13 09:39:43;;;;;;;;;3.00;3.00;;;;;32.90;15.96;101834.81;5077730;28;45533;-76
2022/05/13 09:42:19;;;;;;;;;6.33;2.00;;;;;32.67;16.80;101838.78;5059791;28;45548;-75
2022/05/13 09:44:46;;;;;;;;;0.67;0.67;;;;;33.06;16.26;101862.47;5060014;28;48353;-74
2022/05/13 09:47:29;;;;;;;;;4.33;3.67;;;;;32.68;16.77;101785.38;5059866;28;45518;-74
2022/05/13 09:49:54;;;;;;;;;1.00;1.00;;;;;32.51;16.55;101739.84;5077540;28;45536;-76
2022/05/13 09:52:31;;;;;;;;;4.00;3.00;;;;;33.46;16.44;101857.16;5059401;28;45374;-74
2022/05/13 09:55:12;;;;;;;;;1.00;0.00;;;;;33.56;16.17;101839.81;5059689;28;45595;-77
2022/05/13 09:57:38;;;;;;;;;1.00;1.00;;;;;33.07;15.91;101756.66;5077792;28;45664;-76
2022/05/13 10:00:17;;;;;;;;;4.67;4.67;;;;;33.45;15.98;101854.69;5059578;28;45344;-75
2022/05/13 10:02:49;;;;;;;;;2.33;1.33;;;;;33.11;16.77;101844.03;5059796;28;45470;-76
2022/05/13 10:05:24;;;;;;;;;1.00;1.00;;;;;32.26;16.51;101810.13;5077282;27;45581;-75
2022/05/13 10:07:49;;;;;;;;;0.00;0.00;;;;;32.06;17.26;101851.19;5059741;28;45456;-75
2022/05/13 10:16:05;;;;;;;;;2.33;1.00;;;;;29.89;19.14;101840.34;5077747;28;45886;-74
2022/05/13 10:18:33;;;;;;;;;0.67;0.67;;;;;28.43;19.71;101730.22;5058910;28;45361;-76
2022/05/13 10:21:06;;;;;;;;;0.00;0.00;;;;;28.35;19.99;101778.94;5059298;28;45628;-74
2022/05/13 10:23:40;;;;;;;;;1.00;1.00;;;;;28.32;19.77;101847.81;5077902;28;45319;-74
2022/05/13 10:26:11;;;;;;;;;1.00;1.00;;;;;27.82;21.00;101840.72;5059874;28;46035;-77
2022/05/13 10:29:21;;;;;;;;;1.00;1.00;;;;;27.33;21.55;101847.22;5062109;28;45387;-72
2022/05/13 10:31:49;;;;;;;;;1.00;1.00;;;;;26.80;21.59;101825.94;5062615;28;45533;-75
2022/05/13 10:34:25;;;;;;;;;2.00;2.00;;;;;26.58;22.44;101844.59;5060835;28;45379;-75
2022/05/13 10:37:13;;;;;;;;;1.00;1.00;;;;;25.92;22.60;101787.03;5060680;28;45732;-74
2022/05/13 10:39:44;;;;;;;;;2.00;2.00;;;;;26.01;22.73;101848.38;5077527;28;45497;-73
2022/05/13 10:42:28;;;;;;;;;2.00;2.00;;;;;25.38;23.03;101799.22;5059246;28;45446;-75
2022/05/13 10:45:05;;;;;;;;;2.33;2.33;;;;;25.41;23.58;101839.63;5059235;28;45661;-74
2022/05/13 10:47:40;;;;;;;;;2.00;1.00;;;;;24.98;24.26;101799.34;5076800;28;45666;-75
2022/05/13 10:50:32;;;;;;;;;5.00;4.00;;;;;24.97;23.74;101841.19;5076943;28;45611;-74
2022/05/13 10:53:23;;;;;;;;;1.67;1.67;;;;;24.85;23.89;101838.31;5079106;28;45281;-74
2022/05/13 10:56:07;;;;;;;;;1.00;1.00;;;;;24.48;24.13;101793.59;5061781;28;45625;-78
2022/05/13 10:58:54;;;;;;;;;4.00;2.67;;;;;24.55;24.49;101824.31;5062188;28;45363;-72
2022/05/13 11:02:04;;;;;;;;;2.00;1.00;;;;;24.40;25.52;101834.56;5080539;28;45304;-74
2022/05/13 11:04:53;;;;;;;;;2.00;2.00;;;;;24.20;25.61;101828.25;5056600;28;45408;-76
2022/05/13 11:07:31;;;;;;;;;3.00;3.00;;;;;24.19;25.42;101834.72;5063835;28;45278;-74
2022/05/13 11:10:20;;;;;;;;;3.00;1.33;;;;;23.79;25.30;101793.06;5062768;28;46160;-75
2022/05/13 11:12:56;;;;;;;;;2.00;2.00;;;;;23.67;25.47;101804.56;5080843;28;45576;-74
2022/05/13 11:15:45;;;;;;;;;1.33;0.33;;;;;23.36;25.65;101771.63;5083007;28;45255;-77
2022/05/13 11:18:31;;;;;;;;;1.33;1.33;;;;;23.04;25.94;101722.47;5063125;28;45478;-73
2022/05/13 11:21:20;;;;;;;;;2.00;2.00;;;;;23.60;26.36;101817.25;5062142;28;45371;-75
2022/05/13 11:25:54;;;;;;;;;5.00;4.00;;;;;20.68;26.55;101357.09;5053321;28;45859;-72
2022/05/13 11:26:41;;;;;;;;;1.00;1.00;;;;;23.34;26.93;101777.25;5080448;28;45528;-75
2022/05/13 11:29:20;;;;;;;;;3.00;1.67;;;;;23.51;26.51;101823.88;5080271;28;45483;-73
2022/05/13 11:32:16;;;;;;;;;2.00;2.00;;;;;23.48;26.93;101818.03;5079806;28;45427;-74
2022/05/13 11:34:53;;;;;;;;;3.67;2.00;;;;;23.43;26.24;101818.66;5080232;28;45298;-73
2022/05/13 11:37:21;;;;;;;;;3.00;2.33;;;;;22.89;27.10;101726.38;5062142;28;45370;-74
2022/05/13 11:40:06;;;;;;;;;1.00;1.00;;;;;23.32;27.31;101803.75;5062301;28;45577;-75
2022/05/13 11:46:10;;;;;;;;;4.00;2.67;;;;;23.31;28.24;101801.25;5079828;28;45228;-76
2022/05/13 11:48:47;;;;;;;;;2.00;2.00;;;;;22.83;28.11;101710.91;5061669;28;45338;-73
2022/05/13 11:51:33;;;;;;;;;5.33;4.67;;;;;23.38;27.80;101808.38;5061659;28;45460;-74
2022/05/13 11:54:01;;;;;;;;;1.33;1.33;;;;;23.35;28.09;101802.53;5061773;28;48120;-72
2022/05/13 11:56:29;;;;;;;;;1.00;1.00;;;;;23.30;28.07;101800.41;5079319;28;45457;-71
2022/05/13 11:58:54;;;;;;;;;2.33;2.33;;;;;23.25;27.96;101794.78;5061613;28;45261;-74
2022/05/13 12:01:35;;;;;;;;;2.00;2.00;;;;;23.20;27.86;101794.50;5061561;28;45575;-76
2022/05/13 12:04:12;;;;;;;;;1.67;1.67;;;;;22.37;28.61;101663.47;5079026;28;45732;-74
2022/05/13 12:06:50;;;;;;;;;2.67;2.00;;;;;23.15;28.16;101788.88;5080464;28;45157;-74
2022/05/13 12:09:24;;;;;;;;;2.67;2.67;;;;;23.15;28.68;101786.16;5080001;28;45570;-72
2022/05/13 12:12:08;;;;;;;;;2.00;2.00;;;;;22.97;28.60;101775.00;5080043;28;45574;-74
2022/05/13 12:15:06;;;;;;;;;2.67;2.67;;;;;23.11;28.67;101765.91;5079122;28;45578;-73
2022/05/13 12:17:56;;;;;;;;;1.00;1.00;;;;;22.89;28.19;101729.06;5078904;28;45404;-75
2022/05/13 12:20:52;;;;;;;;;2.00;2.00;;;;;22.30;28.32;101634.69;5079180;28;45302;-75
2022/05/13 12:23:23;;;;;;;;;5.00;1.00;;;;;23.30;28.56;101805.00;5049910;28;45807;-74